createdAt,value
2019-01-24T00:00:00.531Z,33.57
2019-01-24T00:02:29.489Z,33.47
2019-01-24T00:04:58.295Z,34.33
2019-01-24T00:07:27.102Z,32.57
2019-01-24T00:09:55.923Z,33.80
2019-01-24T00:12:24.743Z,34.53
2019-01-24T00:14:53.557Z,36.07
2019-01-24T00:17:22.375Z,34.80
2019-01-24T00:19:51.196Z,33.07
2019-01-24T00:22:20.076Z,34.23
2019-01-24T00:24:48.904Z,34.67
2019-01-24T00:27:17.714Z,34.93
2019-01-24T00:29:46.536Z,35.23
2019-01-24T00:32:15.357Z,36.37
2019-01-24T00:34:44.162Z,34.00
2019-01-24T00:37:12.998Z,33.77
2019-01-24T00:39:41.804Z,33.60
2019-01-24T00:42:10.606Z,35.17
2019-01-24T00:44:39.420Z,35.40
2019-01-24T00:47:08.231Z,34.23
2019-01-24T00:49:37.040Z,33.20
2019-01-24T00:52:05.886Z,34.77
2019-01-24T00:54:34.688Z,33.47
2019-01-24T00:57:03.504Z,34.73
2019-01-24T00:59:32.323Z,34.90
2019-01-24T01:02:01.148Z,34.43
2019-01-24T01:04:30.045Z,33.03
2019-01-24T01:06:59.882Z,33.23
2019-01-24T01:09:28.682Z,33.43
2019-01-24T01:11:57.479Z,34.07
2019-01-24T01:14:26.477Z,34.63
2019-01-24T01:16:55.276Z,34.80
2019-01-24T01:19:24.088Z,34.60
2019-01-24T01:21:52.909Z,34.43
2019-01-24T01:24:21.703Z,35.30
2019-01-24T01:26:50.504Z,36.10
2019-01-24T01:29:19.331Z,35.20
2019-01-24T01:31:48.136Z,33.97
2019-01-24T01:34:16.944Z,35.30
2019-01-24T01:36:45.779Z,35.53
2019-01-24T01:39:14.653Z,35.57
2019-01-24T01:41:43.463Z,35.30
2019-01-24T01:44:12.283Z,34.10
2019-01-24T01:46:41.108Z,33.73
2019-01-24T01:49:09.956Z,33.43
2019-01-24T01:51:38.748Z,34.70
2019-01-24T01:54:07.553Z,35.20
2019-01-24T01:56:37.349Z,33.73
2019-01-24T01:59:06.171Z,34.97
2019-01-24T02:01:34.971Z,34.87
2019-01-24T02:04:03.805Z,34.03
2019-01-24T02:06:32.599Z,33.50
2019-01-24T02:09:01.405Z,33.50
2019-01-24T02:11:31.008Z,35.50
2019-01-24T02:13:59.812Z,36.27
2019-01-24T02:16:28.612Z,36.80
2019-01-24T02:18:57.444Z,35.87
2019-01-24T02:21:26.323Z,37.80
2019-01-24T02:23:55.198Z,35.17
2019-01-24T02:26:24.092Z,36.00
2019-01-24T02:28:52.953Z,36.83
2019-01-24T02:31:21.748Z,37.00
2019-01-24T02:33:50.565Z,35.60
2019-01-24T02:36:19.376Z,38.57
2019-01-24T02:38:48.200Z,36.20
2019-01-24T02:41:17.021Z,36.83
2019-01-24T02:43:45.832Z,36.37
2019-01-24T02:46:14.670Z,37.40
2019-01-24T02:48:43.467Z,39.10
2019-01-24T02:51:12.273Z,42.33
2019-01-24T02:53:41.095Z,42.47
2019-01-24T02:56:09.895Z,42.97
2019-01-24T02:58:38.739Z,45.03
2019-01-24T03:01:07.619Z,44.90
2019-01-24T03:03:36.427Z,45.67
2019-01-24T03:06:05.263Z,45.37
2019-01-24T03:08:34.167Z,46.90
2019-01-24T03:11:02.984Z,47.83
2019-01-24T03:13:31.797Z,48.07
2019-01-24T03:16:00.973Z,49.03
2019-01-24T03:18:29.772Z,48.47
2019-01-24T03:20:59.561Z,47.10
2019-01-24T03:23:28.417Z,49.40
2019-01-24T03:25:57.237Z,48.10
2019-01-24T03:28:26.051Z,46.83
2019-01-24T03:30:54.981Z,45.17
2019-01-24T03:33:23.770Z,46.47
2019-01-24T03:35:52.589Z,46.60
2019-01-24T03:38:21.499Z,46.27
2019-01-24T03:40:50.328Z,46.90
2019-01-24T03:43:19.212Z,47.23
2019-01-24T03:45:48.042Z,48.90
2019-01-24T03:48:16.846Z,49.63
2019-01-24T03:50:45.657Z,47.47
2019-01-24T03:53:14.503Z,48.43
2019-01-24T03:55:43.321Z,48.57
2019-01-24T03:58:12.145Z,46.77
2019-01-24T04:00:41.095Z,45.23
2019-01-24T04:03:09.900Z,46.90
2019-01-24T04:05:38.721Z,47.23
2019-01-24T04:08:07.558Z,48.30
2019-01-24T04:10:36.445Z,46.90
2019-01-24T04:13:05.261Z,47.10
2019-01-24T04:15:34.160Z,48.40
2019-01-24T04:18:03.008Z,50.17
2019-01-24T04:20:31.828Z,48.30
2019-01-24T04:23:00.636Z,47.83
2019-01-24T04:25:29.463Z,47.67
2019-01-24T04:27:58.273Z,48.13
2019-01-24T04:30:27.081Z,50.13
2019-01-24T04:32:56.161Z,48.77
2019-01-24T04:35:24.964Z,48.10
2019-01-24T04:37:53.800Z,49.10
2019-01-24T04:40:22.636Z,48.13
2019-01-24T04:42:51.454Z,48.77
2019-01-24T04:45:21.236Z,49.73
2019-01-24T04:47:50.056Z,53.00
2019-01-24T04:50:18.865Z,49.43
2019-01-24T04:52:47.685Z,50.30
2019-01-24T04:55:17.206Z,52.60
2019-01-24T04:57:46.064Z,49.13
2019-01-24T05:00:24.933Z,46.83
2019-01-24T05:02:53.745Z,49.73
2019-01-24T05:05:27.585Z,51.27
2019-01-24T05:07:54.561Z,49.13
2019-01-24T05:10:23.408Z,53.33
2019-01-24T05:12:52.218Z,47.70
2019-01-24T05:15:21.043Z,51.53
2019-01-24T05:17:51.023Z,51.13
2019-01-24T05:20:19.900Z,49.83
2019-01-24T05:22:48.731Z,47.43
2019-01-24T05:25:17.732Z,50.33
2019-01-24T05:27:46.644Z,50.67
2019-01-24T05:30:18.048Z,48.90
2019-01-24T05:32:46.859Z,50.70
2019-01-24T05:35:15.725Z,50.80
2019-01-24T05:37:44.550Z,50.07
2019-01-24T05:40:13.353Z,48.47
2019-01-24T05:42:42.198Z,48.40
2019-01-24T05:45:12.084Z,48.60
2019-01-24T05:47:40.897Z,49.60
2019-01-24T05:50:10.425Z,49.17
2019-01-24T05:52:39.252Z,48.60
2019-01-24T05:55:09.039Z,50.67
2019-01-24T05:57:37.852Z,52.27
2019-01-24T06:00:08.137Z,49.03
2019-01-24T06:02:36.961Z,51.87
2019-01-24T06:05:06.980Z,49.30
2019-01-24T06:07:35.792Z,46.90
2019-01-24T06:10:06.229Z,45.90
2019-01-24T06:12:35.098Z,48.43
2019-01-24T06:15:04.878Z,45.43
2019-01-24T06:17:33.689Z,45.93
2019-01-24T06:20:02.797Z,45.90
2019-01-24T06:22:31.604Z,46.10
2019-01-24T06:25:00.430Z,43.63
2019-01-24T06:27:29.258Z,47.80
2019-01-24T06:29:58.061Z,43.17
2019-01-24T06:32:26.883Z,45.60
2019-01-24T06:34:55.714Z,46.10
2019-01-24T06:37:24.534Z,44.30
2019-01-24T06:39:53.340Z,43.67
2019-01-24T06:42:22.208Z,45.47
2019-01-24T06:44:51.085Z,44.73
2019-01-24T06:47:19.961Z,43.03
2019-01-24T06:49:48.810Z,41.20
2019-01-24T06:52:17.620Z,42.80
2019-01-24T06:54:46.449Z,43.60
2019-01-24T06:57:15.265Z,42.63
2019-01-24T06:59:44.078Z,45.93
2019-01-24T07:02:12.895Z,42.77
2019-01-24T07:04:41.746Z,43.47
2019-01-24T07:07:10.560Z,40.77
2019-01-24T07:09:39.377Z,41.43
2019-01-24T07:12:08.222Z,42.17
2019-01-24T07:14:37.031Z,41.37
2019-01-24T07:17:05.835Z,41.73
2019-01-24T07:19:34.656Z,40.90
2019-01-24T07:22:03.474Z,40.07
2019-01-24T07:24:32.284Z,40.90
2019-01-24T07:27:01.096Z,41.67
2019-01-24T07:29:29.925Z,41.37
2019-01-24T07:31:58.813Z,39.87
2019-01-24T07:34:27.621Z,38.47
2019-01-24T07:36:56.461Z,33.73
2019-01-24T07:39:25.265Z,34.83
2019-01-24T07:41:54.083Z,35.70
2019-01-24T07:44:22.916Z,34.33
2019-01-24T07:46:51.716Z,36.90
2019-01-24T07:49:20.583Z,35.73
2019-01-24T07:51:49.449Z,38.20
2019-01-24T07:54:18.263Z,36.17
2019-01-24T07:56:47.077Z,37.47
2019-01-24T07:59:15.919Z,36.73
2019-01-24T08:01:44.720Z,36.90
2019-01-24T08:04:13.527Z,35.93
2019-01-24T08:06:42.370Z,34.73
2019-01-24T08:09:11.168Z,35.77
2019-01-24T08:11:39.973Z,35.00
2019-01-24T08:14:08.811Z,34.23
2019-01-24T08:16:37.612Z,35.93
2019-01-24T08:19:06.421Z,34.70
2019-01-24T08:21:35.272Z,32.87
2019-01-24T08:24:04.080Z,34.73
2019-01-24T08:26:32.882Z,33.43
2019-01-24T08:29:01.726Z,33.20
2019-01-24T08:31:30.531Z,31.80
2019-01-24T08:33:59.340Z,33.20
2019-01-24T08:36:28.200Z,32.63
2019-01-24T08:38:56.997Z,32.60
2019-01-24T08:41:25.806Z,32.43
2019-01-24T08:43:54.637Z,32.77
2019-01-24T08:46:23.433Z,32.20
2019-01-24T08:48:52.239Z,31.93
2019-01-24T08:51:21.095Z,31.27
2019-01-24T08:53:50.851Z,35.03
2019-01-24T08:56:19.660Z,31.60
2019-01-24T08:58:48.484Z,32.93
2019-01-24T09:01:17.287Z,31.67
2019-01-24T09:03:46.090Z,35.00
2019-01-24T09:06:14.931Z,34.03
2019-01-24T09:08:43.736Z,34.30
2019-01-24T09:11:12.543Z,31.97
2019-01-24T09:13:41.379Z,34.57
2019-01-24T09:16:10.189Z,31.53
2019-01-24T09:18:38.997Z,33.10
2019-01-24T09:21:07.835Z,34.30
2019-01-24T09:23:37.709Z,35.93
2019-01-24T09:26:06.524Z,35.60
2019-01-24T09:28:35.380Z,33.23
2019-01-24T09:31:04.185Z,33.23
2019-01-24T09:33:32.999Z,34.43
2019-01-24T09:36:01.848Z,35.23
2019-01-24T09:38:30.664Z,37.33
2019-01-24T09:40:59.479Z,38.83
2019-01-24T09:43:28.325Z,35.67
2019-01-24T09:45:57.135Z,35.60
2019-01-24T09:48:25.942Z,35.43
2019-01-24T09:50:54.808Z,33.83
2019-01-24T09:53:23.618Z,36.07
2019-01-24T09:55:52.571Z,35.47
2019-01-24T09:58:21.406Z,36.50
2019-01-24T10:00:50.219Z,36.10
2019-01-24T10:03:19.028Z,37.33
2019-01-24T10:05:47.873Z,36.33
2019-01-24T10:08:16.656Z,35.57
2019-01-24T10:10:45.470Z,36.23
2019-01-24T10:13:14.282Z,35.57
2019-01-24T10:15:43.088Z,35.53
2019-01-24T10:18:11.924Z,33.77
2019-01-24T10:20:40.740Z,33.27
2019-01-24T10:23:09.611Z,35.10
2019-01-24T10:25:38.424Z,34.93
2019-01-24T10:28:07.262Z,33.50
2019-01-24T10:30:42.387Z,34.60
2019-01-24T10:33:06.647Z,32.87
2019-01-24T10:35:35.491Z,33.07
2019-01-24T10:38:04.299Z,32.20
2019-01-24T10:40:33.174Z,31.90
2019-01-24T10:43:02.007Z,33.07
2019-01-24T10:45:30.826Z,32.97
2019-01-24T10:47:59.630Z,31.00
2019-01-24T10:50:29.553Z,31.67
2019-01-24T10:52:58.436Z,31.77
2019-01-24T10:55:27.608Z,32.73
2019-01-24T10:57:57.516Z,32.00
2019-01-24T11:00:33.450Z,30.63
2019-01-24T11:03:03.275Z,29.93
2019-01-24T11:05:32.157Z,30.63
2019-01-24T11:08:00.969Z,30.97
2019-01-24T11:10:29.828Z,31.70
2019-01-24T11:12:58.651Z,29.40
2019-01-24T11:15:27.458Z,28.83
2019-01-24T11:17:56.291Z,28.40
2019-01-24T11:20:25.096Z,25.97
2019-01-24T11:22:53.903Z,25.70
2019-01-24T11:25:23.617Z,26.53
2019-01-24T11:27:52.431Z,27.73
2019-01-24T11:30:22.208Z,26.57
2019-01-24T11:32:51.140Z,27.60
2019-01-24T11:35:21.120Z,22.57
2019-01-24T11:37:49.999Z,24.00
2019-01-24T11:40:19.104Z,24.10
2019-01-24T11:42:48.004Z,24.07
2019-01-24T11:45:17.989Z,25.33
2019-01-24T11:47:46.842Z,24.83
2019-01-24T11:50:17.685Z,26.50
2019-01-24T11:52:47.497Z,26.07
2019-01-24T11:55:17.381Z,26.10
2019-01-24T11:57:46.203Z,27.07
2019-01-24T12:00:16.652Z,26.93
2019-01-24T12:02:45.615Z,26.67
2019-01-24T12:05:15.505Z,28.20
2019-01-24T12:07:44.336Z,27.67
2019-01-24T12:10:14.915Z,28.97
2019-01-24T12:12:43.766Z,28.27
2019-01-24T12:15:14.036Z,27.93
2019-01-24T12:17:42.845Z,27.57
2019-01-24T12:20:13.355Z,29.40
2019-01-24T12:22:42.152Z,25.77
2019-01-24T12:25:10.960Z,26.23
2019-01-24T12:27:39.796Z,28.57
2019-01-24T12:30:10.248Z,26.33
2019-01-24T12:32:39.050Z,27.20
2019-01-24T12:35:08.659Z,26.00
2019-01-24T12:37:37.456Z,26.23
2019-01-24T12:40:09.883Z,25.40
2019-01-24T12:42:38.697Z,25.10
2019-01-24T12:45:15.143Z,21.80
2019-01-24T12:47:44.005Z,23.37
2019-01-24T12:50:13.879Z,23.07
2019-01-24T12:52:42.721Z,23.87
2019-01-24T12:55:11.591Z,24.83
2019-01-24T12:57:40.405Z,22.27
2019-01-24T13:00:13.955Z,24.30
2019-01-24T13:02:42.760Z,23.20
2019-01-24T13:05:11.576Z,23.83
2019-01-24T13:07:40.481Z,22.70
2019-01-24T13:10:10.913Z,23.57
2019-01-24T13:12:39.795Z,23.03
2019-01-24T13:15:10.025Z,23.07
2019-01-24T13:17:38.835Z,22.37
2019-01-24T13:20:09.018Z,22.87
2019-01-24T13:22:37.939Z,24.50
2019-01-24T13:25:08.418Z,24.30
2019-01-24T13:27:37.268Z,24.27
2019-01-24T13:30:07.741Z,22.83
2019-01-24T13:32:36.547Z,22.00
2019-01-24T13:35:05.360Z,22.77
2019-01-24T13:37:34.195Z,21.63
2019-01-24T13:40:03.478Z,20.60
2019-01-24T13:42:32.285Z,21.43
2019-01-24T13:45:01.111Z,21.53
2019-01-24T13:47:30.009Z,21.33
2019-01-24T13:49:59.041Z,20.10
2019-01-24T13:52:27.842Z,21.57
2019-01-24T13:54:56.703Z,19.17
2019-01-24T13:57:25.554Z,20.30
2019-01-24T13:59:54.369Z,20.30
2019-01-24T14:02:23.182Z,20.20
2019-01-24T14:04:51.993Z,21.43
2019-01-24T14:07:20.828Z,20.63
2019-01-24T14:09:49.738Z,20.13
2019-01-24T14:12:18.540Z,20.60
2019-01-24T14:14:47.430Z,23.27
2019-01-24T14:17:16.264Z,20.47
2019-01-24T14:19:45.076Z,21.27
2019-01-24T14:22:13.880Z,20.87
2019-01-24T14:24:42.792Z,21.00
2019-01-24T14:27:11.600Z,19.73
2019-01-24T14:29:40.455Z,22.07
2019-01-24T14:32:09.353Z,21.03
2019-01-24T14:34:39.528Z,21.70
2019-01-24T14:37:08.836Z,19.93
2019-01-24T14:39:37.662Z,20.67
2019-01-24T14:42:06.555Z,21.10
2019-01-24T14:44:35.421Z,20.20
2019-01-24T14:47:04.291Z,21.83
2019-01-24T14:49:33.097Z,21.00
2019-01-24T14:52:01.898Z,22.20
2019-01-24T14:54:30.818Z,22.30
2019-01-24T14:56:59.685Z,23.00
2019-01-24T14:59:28.503Z,24.73
2019-01-24T15:01:57.376Z,23.10
2019-01-24T15:04:26.263Z,25.60
2019-01-24T15:06:55.138Z,24.17
2019-01-24T15:09:23.982Z,24.80
2019-01-24T15:11:52.794Z,23.37
2019-01-24T15:14:21.606Z,24.43
2019-01-24T15:16:50.451Z,21.40
2019-01-24T15:19:19.265Z,23.83
2019-01-24T15:21:48.069Z,23.00
2019-01-24T15:24:16.979Z,23.07
2019-01-24T15:26:45.789Z,23.93
2019-01-24T15:29:14.603Z,22.97
2019-01-24T15:31:43.441Z,24.90
2019-01-24T15:34:12.335Z,22.83
2019-01-24T15:36:41.139Z,24.23
2019-01-24T15:39:10.024Z,24.73
2019-01-24T15:41:38.893Z,25.63
2019-01-24T15:44:07.713Z,23.87
2019-01-24T15:46:36.620Z,25.33
2019-01-24T15:49:05.425Z,24.73
2019-01-24T15:51:34.237Z,26.50
2019-01-24T15:54:03.141Z,26.60
2019-01-24T15:56:31.981Z,25.90
2019-01-24T15:59:00.785Z,25.97
2019-01-24T16:01:29.594Z,24.90
2019-01-24T16:03:58.457Z,27.10
2019-01-24T16:06:27.275Z,25.67
2019-01-24T16:08:57.096Z,25.90
2019-01-24T16:11:25.930Z,26.40
2019-01-24T16:13:54.743Z,26.10
2019-01-24T16:16:23.564Z,25.17
2019-01-24T16:18:52.401Z,24.20
2019-01-24T16:21:21.209Z,26.47
2019-01-24T16:23:50.022Z,27.13
2019-01-24T16:26:18.922Z,27.17
2019-01-24T16:28:47.726Z,26.37
2019-01-24T16:31:16.542Z,27.43
2019-01-24T16:33:45.389Z,26.87
2019-01-24T16:36:14.194Z,26.83
2019-01-24T16:38:43.057Z,28.03
2019-01-24T16:41:12.877Z,41.40
2019-01-24T16:43:41.768Z,28.83
2019-01-24T16:46:10.573Z,31.10
2019-01-24T16:48:39.446Z,27.97
2019-01-24T16:51:08.265Z,29.93
2019-01-24T16:53:38.148Z,29.53
2019-01-24T16:56:06.986Z,28.37
2019-01-24T16:58:35.793Z,27.50
2019-01-24T17:01:04.872Z,26.63
2019-01-24T17:03:34.792Z,26.90
2019-01-24T17:06:03.611Z,26.80
2019-01-24T17:08:33.482Z,25.67
2019-01-24T17:11:02.606Z,26.80
2019-01-24T17:13:31.413Z,27.40
2019-01-24T17:16:00.222Z,27.83
2019-01-24T17:18:29.071Z,27.23
2019-01-24T17:20:57.866Z,25.80
2019-01-24T17:23:26.668Z,25.97
2019-01-24T17:25:55.513Z,28.17
2019-01-24T17:28:24.321Z,27.07
2019-01-24T17:30:53.150Z,26.73
2019-01-24T17:33:22.004Z,27.23
2019-01-24T17:35:50.819Z,28.13
2019-01-24T17:38:23.643Z,26.60
2019-01-24T17:40:50.256Z,26.23
2019-01-24T17:43:19.077Z,25.90
2019-01-24T17:45:47.884Z,25.90
2019-01-24T17:48:16.795Z,26.93
2019-01-24T17:50:45.598Z,28.20
2019-01-24T17:53:14.487Z,28.57
2019-01-24T17:55:44.493Z,29.70
2019-01-24T17:58:13.315Z,29.23
2019-01-24T18:00:43.776Z,29.07
2019-01-24T18:03:14.139Z,30.53
2019-01-24T18:05:42.958Z,27.30
2019-01-24T18:08:11.756Z,28.20
2019-01-24T18:10:40.585Z,29.93
2019-01-24T18:13:10.532Z,30.77
2019-01-24T18:15:39.371Z,31.17
2019-01-24T18:18:09.340Z,31.90
2019-01-24T18:20:38.223Z,30.70
2019-01-24T18:23:08.037Z,31.30
2019-01-24T18:25:36.853Z,31.27
2019-01-24T18:28:06.735Z,29.73
2019-01-24T18:30:35.553Z,31.47
2019-01-24T18:33:04.410Z,30.13
2019-01-24T18:35:33.284Z,32.60
2019-01-24T18:38:02.092Z,33.07
2019-01-24T18:40:30.987Z,32.57
2019-01-24T18:42:59.806Z,36.33
2019-01-24T18:45:32.598Z,32.97
2019-01-24T18:48:01.416Z,31.53
2019-01-24T18:50:30.295Z,31.20
2019-01-24T18:52:59.205Z,31.57
2019-01-24T18:55:28.013Z,30.97
2019-01-24T18:57:56.893Z,31.93
2019-01-24T19:00:27.511Z,26.73
2019-01-24T19:02:56.381Z,28.20
2019-01-24T19:05:25.265Z,27.53
2019-01-24T19:07:54.169Z,28.10
2019-01-24T19:10:23.061Z,28.33
2019-01-24T19:12:52.167Z,29.20
2019-01-24T19:15:21.815Z,28.70
2019-01-24T19:17:50.791Z,29.17
2019-01-24T19:20:20.377Z,29.30
2019-01-24T19:22:52.200Z,30.10
2019-01-24T19:25:21.758Z,27.47
2019-01-24T19:27:50.638Z,28.50
2019-01-24T19:30:26.362Z,26.20
2019-01-24T19:32:55.503Z,26.87
2019-01-24T19:35:24.320Z,26.03
2019-01-24T19:37:53.240Z,23.63
2019-01-24T19:40:23.664Z,21.73
2019-01-24T19:42:52.545Z,21.17
2019-01-24T19:45:22.265Z,19.23
2019-01-24T19:47:51.055Z,18.73
2019-01-24T19:50:20.950Z,19.13
2019-01-24T19:52:49.789Z,18.97
2019-01-24T19:55:18.669Z,19.67
2019-01-24T19:57:47.478Z,18.87
2019-01-24T20:00:18.380Z,17.80
2019-01-24T20:02:47.265Z,18.90
2019-01-24T20:05:16.767Z,18.50
2019-01-24T20:07:45.594Z,18.83
2019-01-24T20:10:16.021Z,19.50
2019-01-24T20:12:44.862Z,19.33
2019-01-24T20:15:20.455Z,19.97
2019-01-24T20:17:49.650Z,19.73
2019-01-24T20:20:18.564Z,20.00
2019-01-24T20:22:47.656Z,19.27
2019-01-24T20:25:17.462Z,20.50
2019-01-24T20:27:46.340Z,20.00
2019-01-24T20:30:18.892Z,19.80
2019-01-24T20:32:48.886Z,18.93
2019-01-24T20:35:19.069Z,19.77
2019-01-24T20:37:47.937Z,19.53
2019-01-24T20:40:16.741Z,19.63
2019-01-24T20:42:46.631Z,19.63
2019-01-24T20:45:15.543Z,19.73
2019-01-24T20:47:45.424Z,19.20
2019-01-24T20:50:14.904Z,20.40
2019-01-24T20:52:43.723Z,19.43
2019-01-24T20:55:15.797Z,19.40
2019-01-24T20:57:44.708Z,20.47
2019-01-24T21:00:14.774Z,20.40
2019-01-24T21:02:43.747Z,20.10
2019-01-24T21:05:13.936Z,20.13
2019-01-24T21:07:42.766Z,19.97
2019-01-24T21:10:13.165Z,18.47
2019-01-24T21:12:43.061Z,19.80
2019-01-24T21:15:13.054Z,21.80
2019-01-24T21:17:41.859Z,19.13
2019-01-24T21:20:14.834Z,19.23
2019-01-24T21:22:43.776Z,19.77
2019-01-24T21:25:13.951Z,18.93
2019-01-24T21:27:42.795Z,19.67
2019-01-24T21:30:13.388Z,20.17
2019-01-24T21:32:42.193Z,21.97
2019-01-24T21:35:11.019Z,21.00
2019-01-24T21:37:39.829Z,21.03
2019-01-24T21:40:13.302Z,19.57
2019-01-24T21:42:42.115Z,21.97
2019-01-24T21:45:15.299Z,21.50
2019-01-24T21:47:44.105Z,21.40
2019-01-24T21:50:14.284Z,21.57
2019-01-24T21:52:43.150Z,21.13
2019-01-24T21:55:12.120Z,22.23
2019-01-24T21:57:40.998Z,23.17
2019-01-24T22:00:11.528Z,21.97
2019-01-24T22:02:40.366Z,22.47
2019-01-24T22:05:10.269Z,21.73
2019-01-24T22:07:39.200Z,22.43
2019-01-24T22:10:15.548Z,23.10
2019-01-24T22:12:44.390Z,22.07
2019-01-24T22:15:14.356Z,21.27
2019-01-24T22:17:43.158Z,22.93
2019-01-24T22:20:12.760Z,22.77
2019-01-24T22:22:41.570Z,24.07
2019-01-24T22:25:11.848Z,21.93
2019-01-24T22:27:40.876Z,23.37
2019-01-24T22:30:11.316Z,21.90
2019-01-24T22:32:40.124Z,22.57
2019-01-24T22:35:08.974Z,23.20
2019-01-24T22:37:37.814Z,22.13
2019-01-24T22:40:08.553Z,24.20
2019-01-24T22:42:37.367Z,21.93
2019-01-24T22:45:07.817Z,22.87
2019-01-24T22:47:36.638Z,22.17
2019-01-24T22:50:07.050Z,24.00
2019-01-24T22:52:35.867Z,23.17
2019-01-24T22:55:05.739Z,23.83
2019-01-24T22:57:34.740Z,23.20
2019-01-24T23:00:05.200Z,25.17
2019-01-24T23:02:34.948Z,23.97
2019-01-24T23:05:05.429Z,24.00
2019-01-24T23:07:34.300Z,23.73
2019-01-24T23:10:03.914Z,23.83
2019-01-24T23:12:33.025Z,25.47
2019-01-24T23:15:01.830Z,23.97
2019-01-24T23:17:30.712Z,25.30
2019-01-24T23:19:59.555Z,24.23
2019-01-24T23:22:28.372Z,25.87
2019-01-24T23:24:58.245Z,23.93
2019-01-24T23:27:27.141Z,23.97
2019-01-24T23:29:56.013Z,25.20
2019-01-24T23:32:24.895Z,22.20
2019-01-24T23:34:53.712Z,25.27
2019-01-24T23:37:22.555Z,25.40
2019-01-24T23:39:53.502Z,27.00
2019-01-24T23:42:21.893Z,26.07
2019-01-24T23:44:50.781Z,24.90
2019-01-24T23:47:19.585Z,24.27
2019-01-24T23:49:48.393Z,27.00
2019-01-24T23:52:17.256Z,25.20
2019-01-24T23:54:46.125Z,26.27
2019-01-24T23:57:14.928Z,26.57
2019-01-24T23:59:43.773Z,26.60
